createdAt,value
2023-05-07T00:00:41.191Z,3.30
2023-05-07T00:01:41.295Z,3.80
2023-05-07T00:02:41.316Z,3.10
2023-05-07T00:03:41.258Z,3.20
2023-05-07T00:04:41.132Z,3.40
2023-05-07T00:05:41.133Z,3.10
2023-05-07T00:06:41.096Z,3.20
2023-05-07T00:07:41.144Z,3.30
2023-05-07T00:08:41.073Z,3.20
2023-05-07T00:09:41.068Z,3.00
2023-05-07T00:10:41.037Z,2.80
2023-05-07T00:11:41.063Z,2.90
2023-05-07T00:12:41.078Z,3.20
2023-05-07T00:13:41.041Z,3.00
2023-05-07T00:14:41.004Z,3.20
2023-05-07T00:15:41.002Z,3.10
2023-05-07T00:16:41.027Z,3.40
2023-05-07T00:17:40.995Z,3.30
2023-05-07T00:18:40.928Z,2.90
2023-05-07T00:19:40.950Z,3.40
2023-05-07T00:20:40.921Z,3.40
2023-05-07T00:21:40.944Z,3.40
2023-05-07T00:22:40.913Z,3.40
2023-05-07T00:23:40.935Z,3.30
2023-05-07T00:24:40.857Z,3.50
2023-05-07T00:25:40.865Z,3.60
2023-05-07T00:26:40.847Z,3.40
2023-05-07T00:27:40.857Z,3.10
2023-05-07T00:28:40.828Z,3.10
2023-05-07T00:29:40.819Z,3.40
2023-05-07T00:30:40.801Z,3.10
2023-05-07T00:31:40.816Z,2.90
2023-05-07T00:32:40.812Z,3.70
2023-05-07T00:33:40.791Z,3.30
2023-05-07T00:34:40.728Z,3.00
2023-05-07T00:35:40.742Z,3.10
2023-05-07T00:36:40.704Z,2.90
2023-05-07T00:37:40.721Z,2.90
2023-05-07T00:38:40.723Z,3.20
2023-05-07T00:39:40.735Z,3.00
2023-05-07T00:40:40.674Z,2.90
2023-05-07T00:41:40.688Z,3.20
2023-05-07T00:42:40.628Z,3.20
2023-05-07T00:43:40.639Z,2.80
2023-05-07T00:44:40.605Z,3.20
2023-05-07T00:45:40.652Z,3.30
2023-05-07T00:46:40.552Z,2.80
2023-05-07T00:47:40.615Z,2.90
2023-05-07T00:48:40.555Z,3.00
2023-05-07T00:49:40.560Z,2.70
2023-05-07T00:50:40.537Z,3.00
2023-05-07T00:51:40.541Z,3.50
2023-05-07T00:52:40.505Z,3.00
2023-05-07T00:53:40.618Z,3.20
2023-05-07T00:54:40.459Z,2.90
2023-05-07T00:55:40.479Z,2.80
2023-05-07T00:56:40.445Z,3.10
2023-05-07T00:57:40.472Z,2.70
2023-05-07T00:58:40.410Z,3.50
2023-05-07T00:59:40.423Z,2.80
2023-05-07T01:00:40.384Z,3.30
2023-05-07T01:01:40.494Z,2.90
2023-05-07T01:02:40.428Z,3.00
2023-05-07T01:03:40.400Z,2.70
2023-05-07T01:04:40.412Z,3.00
2023-05-07T01:05:40.348Z,2.80
2023-05-07T01:06:40.376Z,3.10
2023-05-07T01:07:40.310Z,3.10
2023-05-07T01:08:40.271Z,3.10
2023-05-07T01:09:40.294Z,2.80
2023-05-07T01:10:40.260Z,3.20
2023-05-07T01:11:40.266Z,3.10
2023-05-07T01:12:40.261Z,2.80
2023-05-07T01:13:40.249Z,3.10
2023-05-07T01:14:40.193Z,2.90
2023-05-07T01:15:40.205Z,3.20
2023-05-07T01:16:40.268Z,3.00
2023-05-07T01:17:40.220Z,3.00
2023-05-07T01:18:40.260Z,3.10
2023-05-07T01:19:40.155Z,3.00
2023-05-07T01:20:40.130Z,3.10
2023-05-07T01:21:40.131Z,2.90
2023-05-07T01:22:40.155Z,2.90
2023-05-07T01:23:40.148Z,3.00
2023-05-07T01:24:40.067Z,3.20
2023-05-07T01:25:40.073Z,3.10
2023-05-07T01:26:40.061Z,3.10
2023-05-07T01:27:40.057Z,3.30
2023-05-07T01:28:40.417Z,3.30
2023-05-07T01:29:40.056Z,3.00
2023-05-07T01:30:40.019Z,2.90
2023-05-07T01:31:40.050Z,3.20
2023-05-07T01:32:40.037Z,3.20
2023-05-07T01:33:40.003Z,3.10
2023-05-07T01:34:39.936Z,2.90
2023-05-07T01:35:39.958Z,3.10
2023-05-07T01:36:39.900Z,3.20
2023-05-07T01:37:39.922Z,3.60
2023-05-07T01:38:39.904Z,3.70
2023-05-07T01:39:39.899Z,3.30
2023-05-07T01:40:39.864Z,3.20
2023-05-07T01:41:39.868Z,3.00
2023-05-07T01:42:39.825Z,3.10
2023-05-07T01:43:39.842Z,3.30
2023-05-07T01:44:39.833Z,3.80
2023-05-07T01:45:39.827Z,3.60
2023-05-07T01:46:39.791Z,3.90
2023-05-07T01:47:39.806Z,3.80
2023-05-07T01:48:39.746Z,3.70
2023-05-07T01:49:39.780Z,3.20
2023-05-07T01:50:39.711Z,2.80
2023-05-07T01:51:39.816Z,3.00
2023-05-07T01:52:39.736Z,3.10
2023-05-07T01:53:39.692Z,3.00
2023-05-07T01:54:39.662Z,3.40
2023-05-07T01:55:39.685Z,4.30
2023-05-07T01:56:39.630Z,3.30
2023-05-07T01:57:39.637Z,3.60
2023-05-07T01:58:39.621Z,3.30
2023-05-07T01:59:39.644Z,3.10
2023-05-07T02:00:39.585Z,3.10
2023-05-07T02:01:39.616Z,3.40
2023-05-07T02:02:39.703Z,3.50
2023-05-07T02:03:39.695Z,3.30
2023-05-07T02:04:39.537Z,3.30
2023-05-07T02:05:39.552Z,3.50
2023-05-07T02:06:39.500Z,3.60
2023-05-07T02:07:39.535Z,3.50
2023-05-07T02:08:39.478Z,4.00
2023-05-07T02:09:39.498Z,3.80
2023-05-07T02:10:39.447Z,3.40
2023-05-07T02:11:39.494Z,3.40
2023-05-07T02:12:39.472Z,3.50
2023-05-07T02:13:39.447Z,3.70
2023-05-07T02:14:39.394Z,3.90
2023-05-07T02:15:39.414Z,3.60
2023-05-07T02:16:39.477Z,4.00
2023-05-07T02:17:39.390Z,3.70
2023-05-07T02:18:39.386Z,3.80
2023-05-07T02:19:39.354Z,3.80
2023-05-07T02:20:39.319Z,3.50
2023-05-07T02:21:39.357Z,4.00
2023-05-07T02:22:39.312Z,3.60
2023-05-07T02:23:39.324Z,4.10
2023-05-07T02:24:39.270Z,3.70
2023-05-07T02:25:39.302Z,3.90
2023-05-07T02:26:39.287Z,3.90
2023-05-07T02:27:39.272Z,3.60
2023-05-07T02:28:39.256Z,3.40
2023-05-07T02:29:39.277Z,3.30
2023-05-07T02:30:39.211Z,3.30
2023-05-07T02:31:39.284Z,3.30
2023-05-07T02:32:39.217Z,3.50
2023-05-07T02:33:39.222Z,3.40
2023-05-07T02:34:39.174Z,3.30
2023-05-07T02:35:39.143Z,3.50
2023-05-07T02:36:39.107Z,3.20
2023-05-07T02:37:39.150Z,3.50
2023-05-07T02:38:39.127Z,3.30
2023-05-07T02:39:39.098Z,3.60
2023-05-07T02:40:39.076Z,3.30
2023-05-07T02:41:39.105Z,3.50
2023-05-07T02:42:39.022Z,3.60
2023-05-07T02:43:39.062Z,3.40
2023-05-07T02:44:39.022Z,3.60
2023-05-07T02:45:39.081Z,3.70
2023-05-07T02:46:38.974Z,3.70
2023-05-07T02:47:39.069Z,3.70
2023-05-07T02:48:38.953Z,3.60
2023-05-07T02:49:38.994Z,3.30
2023-05-07T02:50:38.933Z,3.80
2023-05-07T02:51:38.937Z,3.70
2023-05-07T02:52:38.895Z,3.70
2023-05-07T02:53:38.908Z,3.30
2023-05-07T02:54:38.915Z,3.60
2023-05-07T02:55:38.887Z,3.30
2023-05-07T02:56:38.861Z,3.40
2023-05-07T02:57:38.863Z,3.60
2023-05-07T02:58:38.820Z,3.20
2023-05-07T02:59:38.834Z,3.50
2023-05-07T03:00:38.834Z,3.40
2023-05-07T03:01:38.878Z,3.30
2023-05-07T03:02:38.795Z,3.20
2023-05-07T03:03:38.812Z,3.50
2023-05-07T03:04:38.806Z,3.50
2023-05-07T03:05:38.793Z,3.50
2023-05-07T03:06:38.726Z,3.40
2023-05-07T03:07:38.716Z,3.40
2023-05-07T03:08:38.681Z,3.80
2023-05-07T03:09:38.704Z,3.60
2023-05-07T03:10:38.671Z,3.90
2023-05-07T03:11:38.681Z,4.00
2023-05-07T03:12:38.660Z,4.00
2023-05-07T03:13:38.650Z,4.00
2023-05-07T03:14:38.606Z,3.70
2023-05-07T03:15:38.652Z,3.90
2023-05-07T03:16:38.595Z,3.70
2023-05-07T03:17:38.644Z,4.10
2023-05-07T03:18:38.650Z,4.20
2023-05-07T03:19:38.598Z,3.90
2023-05-07T03:20:38.562Z,4.70
2023-05-07T03:21:38.594Z,4.40
2023-05-07T03:22:38.513Z,4.10
2023-05-07T03:23:38.543Z,4.40
2023-05-07T03:24:38.493Z,4.30
2023-05-07T03:25:38.499Z,4.20
2023-05-07T03:26:38.476Z,3.90
2023-05-07T03:27:38.447Z,3.80
2023-05-07T03:28:38.419Z,4.10
2023-05-07T03:29:38.429Z,3.90
2023-05-07T03:30:38.434Z,4.30
2023-05-07T03:31:38.524Z,4.00
2023-05-07T03:32:38.463Z,4.10
2023-05-07T03:33:38.344Z,3.50
2023-05-07T03:34:38.365Z,3.60
2023-05-07T03:35:38.339Z,4.00
2023-05-07T03:36:38.335Z,4.10
2023-05-07T03:37:38.290Z,3.90
2023-05-07T03:38:38.340Z,4.20
2023-05-07T03:39:38.283Z,3.70
2023-05-07T03:40:38.273Z,4.10
2023-05-07T03:41:38.273Z,3.50
2023-05-07T03:42:38.255Z,4.10
2023-05-07T03:43:38.228Z,3.70
2023-05-07T03:44:38.220Z,4.20
2023-05-07T03:45:38.215Z,4.00
2023-05-07T03:46:38.262Z,3.90
2023-05-07T03:47:38.179Z,4.20
2023-05-07T03:48:38.183Z,3.50
2023-05-07T03:49:38.140Z,4.00
2023-05-07T03:50:39.127Z,3.20
2023-05-07T03:51:38.122Z,3.10
2023-05-07T03:52:38.130Z,3.50
2023-05-07T03:53:38.100Z,3.40
2023-05-07T03:54:38.094Z,3.50
2023-05-07T03:55:38.049Z,3.40
2023-05-07T03:56:38.074Z,3.60
2023-05-07T03:57:38.048Z,3.60
2023-05-07T03:58:38.073Z,3.40
2023-05-07T03:59:38.006Z,3.60
2023-05-07T04:00:38.039Z,3.10
2023-05-07T04:01:38.013Z,3.60
2023-05-07T04:02:38.069Z,3.70
2023-05-07T04:03:38.135Z,3.60
2023-05-07T04:04:37.969Z,3.60
2023-05-07T04:05:37.944Z,3.30
2023-05-07T04:06:37.940Z,3.80
2023-05-07T04:07:37.928Z,4.00
2023-05-07T04:08:37.928Z,4.20
2023-05-07T04:09:37.909Z,3.90
2023-05-07T04:10:37.885Z,4.00
2023-05-07T04:11:37.885Z,4.10
2023-05-07T04:12:37.969Z,4.00
2023-05-07T04:13:37.834Z,4.30
2023-05-07T04:14:37.835Z,4.10
2023-05-07T04:15:37.824Z,4.20
2023-05-07T04:16:37.994Z,4.00
2023-05-07T04:17:37.828Z,3.80
2023-05-07T04:18:37.803Z,3.90
2023-05-07T04:19:37.750Z,4.20
2023-05-07T04:20:37.829Z,4.60
2023-05-07T04:21:37.725Z,4.70
2023-05-07T04:22:37.751Z,4.30
2023-05-07T04:23:37.700Z,4.40
2023-05-07T04:24:37.712Z,4.90
2023-05-07T04:25:37.669Z,4.40
2023-05-07T04:26:37.720Z,4.20
2023-05-07T04:27:37.631Z,5.20
2023-05-07T04:28:37.675Z,5.00
2023-05-07T04:29:37.620Z,4.10
2023-05-07T04:30:37.632Z,4.20
2023-05-07T04:31:37.671Z,4.10
2023-05-07T04:32:37.698Z,4.20
2023-05-07T04:33:37.567Z,3.50
2023-05-07T04:34:37.556Z,3.80
2023-05-07T04:35:37.519Z,3.50
2023-05-07T04:36:37.549Z,3.60
2023-05-07T04:37:37.524Z,3.90
2023-05-07T04:38:37.525Z,3.60
2023-05-07T04:39:37.494Z,4.10
2023-05-07T04:40:37.481Z,4.60
2023-05-07T04:41:37.483Z,4.50
2023-05-07T04:42:37.469Z,4.30
2023-05-07T04:43:37.424Z,4.20
2023-05-07T04:44:37.445Z,4.10
2023-05-07T04:45:37.442Z,4.50
2023-05-07T04:46:37.437Z,4.50
2023-05-07T04:47:37.429Z,4.00
2023-05-07T04:48:37.377Z,4.10
2023-05-07T04:49:37.359Z,4.00
2023-05-07T04:50:37.372Z,4.10
2023-05-07T04:51:37.317Z,4.00
2023-05-07T04:52:37.318Z,4.60
2023-05-07T04:53:37.306Z,4.10
2023-05-07T04:54:37.304Z,3.70
2023-05-07T04:55:37.289Z,3.60
2023-05-07T04:56:37.295Z,3.90
2023-05-07T04:57:37.234Z,3.90
2023-05-07T04:58:37.248Z,3.70
2023-05-07T04:59:37.233Z,4.10
2023-05-07T05:00:37.215Z,3.50
2023-05-07T05:01:37.205Z,3.90
2023-05-07T05:02:37.207Z,3.50
2023-05-07T05:03:37.283Z,3.40
2023-05-07T05:04:37.209Z,4.40
2023-05-07T05:05:37.183Z,3.90
2023-05-07T05:06:37.143Z,3.80
2023-05-07T05:07:37.099Z,4.20
2023-05-07T05:08:37.132Z,3.50
2023-05-07T05:09:37.098Z,3.70
2023-05-07T05:10:37.112Z,3.80
2023-05-07T05:11:37.069Z,3.80
2023-05-07T05:12:37.127Z,4.30
2023-05-07T05:13:37.038Z,4.10
2023-05-07T05:14:37.034Z,3.80
2023-05-07T05:15:36.997Z,3.90
2023-05-07T05:16:37.130Z,3.90
2023-05-07T05:17:37.045Z,3.90
2023-05-07T05:18:37.007Z,4.30
2023-05-07T05:19:36.969Z,3.90
2023-05-07T05:20:37.014Z,3.80
2023-05-07T05:21:36.923Z,3.80
2023-05-07T05:22:36.956Z,4.20
2023-05-07T05:23:37.119Z,4.50
2023-05-07T05:24:36.930Z,4.20
2023-05-07T05:25:36.897Z,4.30
2023-05-07T05:26:36.876Z,4.40
2023-05-07T05:27:36.842Z,4.50
2023-05-07T05:28:36.877Z,4.50
2023-05-07T05:29:36.809Z,4.10
2023-05-07T05:30:36.832Z,4.60
2023-05-07T05:31:36.819Z,4.30
2023-05-07T05:32:36.808Z,4.00
2023-05-07T05:33:36.786Z,4.20
2023-05-07T05:34:36.790Z,4.40
2023-05-07T05:35:36.771Z,4.10
2023-05-07T05:36:36.747Z,4.50
2023-05-07T05:37:36.729Z,4.00
2023-05-07T05:38:36.726Z,5.10
2023-05-07T05:39:36.684Z,4.50
2023-05-07T05:40:36.713Z,4.50
2023-05-07T05:41:36.686Z,4.60
2023-05-07T05:42:36.681Z,4.80
2023-05-07T05:43:36.640Z,4.60
2023-05-07T05:44:36.697Z,4.40
2023-05-07T05:45:36.613Z,4.40
2023-05-07T05:46:37.244Z,3.90
2023-05-07T05:47:36.637Z,4.00
2023-05-07T05:48:36.584Z,4.10
2023-05-07T05:49:36.549Z,4.10
2023-05-07T05:50:36.592Z,4.00
2023-05-07T05:51:36.537Z,3.90
2023-05-07T05:52:36.547Z,4.10
2023-05-07T05:53:36.516Z,4.50
2023-05-07T05:54:36.507Z,4.00
2023-05-07T05:55:36.528Z,4.30
2023-05-07T05:56:36.482Z,4.60
2023-05-07T05:57:36.460Z,4.50
2023-05-07T05:58:36.467Z,3.90
2023-05-07T05:59:36.420Z,4.10
2023-05-07T06:00:36.471Z,4.30
2023-05-07T06:01:36.427Z,4.00
2023-05-07T06:02:36.512Z,4.30
2023-05-07T06:03:36.378Z,4.40
2023-05-07T06:04:36.423Z,4.40
2023-05-07T06:05:36.338Z,4.30
2023-05-07T06:06:36.379Z,4.80
2023-05-07T06:07:36.325Z,4.20
2023-05-07T06:08:36.336Z,4.30
2023-05-07T06:09:36.281Z,3.90
2023-05-07T06:10:36.334Z,4.10
2023-05-07T06:11:36.265Z,4.00
2023-05-07T06:12:36.312Z,3.80
2023-05-07T06:13:36.252Z,3.90
2023-05-07T06:14:36.246Z,4.00
2023-05-07T06:15:36.249Z,3.90
2023-05-07T06:16:36.248Z,3.80
2023-05-07T06:17:36.276Z,3.40
2023-05-07T06:18:36.198Z,3.70
2023-05-07T06:19:36.169Z,3.70
2023-05-07T06:20:36.169Z,3.50
2023-05-07T06:21:36.138Z,3.50
2023-05-07T06:22:36.162Z,3.60
2023-05-07T06:23:36.120Z,3.20
2023-05-07T06:24:36.228Z,3.60
2023-05-07T06:25:36.083Z,3.40
2023-05-07T06:26:36.108Z,3.40
2023-05-07T06:27:36.078Z,3.50
2023-05-07T06:28:36.056Z,3.50
2023-05-07T06:29:36.033Z,3.50
2023-05-07T06:30:36.041Z,4.00
2023-05-07T06:31:36.076Z,3.70
2023-05-07T06:32:36.057Z,3.70
2023-05-07T06:33:36.403Z,3.60
2023-05-07T06:34:35.990Z,3.30
2023-05-07T06:35:36.019Z,3.70
2023-05-07T06:36:36.012Z,3.40
2023-05-07T06:37:35.915Z,3.30
2023-05-07T06:38:35.919Z,3.30
2023-05-07T06:39:35.895Z,3.30
2023-05-07T06:40:35.912Z,3.60
2023-05-07T06:41:35.880Z,3.60
2023-05-07T06:42:35.878Z,3.40
2023-05-07T06:43:35.876Z,3.60
2023-05-07T06:44:35.865Z,4.00
2023-05-07T06:45:35.837Z,3.80
2023-05-07T06:46:35.861Z,4.00
2023-05-07T06:47:35.844Z,3.60
2023-05-07T06:48:35.792Z,3.60
2023-05-07T06:49:35.764Z,3.70
2023-05-07T06:50:35.792Z,3.90
2023-05-07T06:51:35.730Z,3.60
2023-05-07T06:52:35.755Z,3.90
2023-05-07T06:53:35.746Z,3.80
2023-05-07T06:54:35.754Z,4.00
2023-05-07T06:55:35.692Z,3.60
2023-05-07T06:56:35.736Z,3.90
2023-05-07T06:57:35.654Z,4.00
2023-05-07T06:58:35.672Z,3.60
2023-05-07T06:59:35.638Z,3.80
2023-05-07T07:00:35.682Z,3.70
2023-05-07T07:01:35.659Z,3.30
2023-05-07T07:02:35.644Z,3.50
2023-05-07T07:03:35.595Z,3.60
2023-05-07T07:04:35.621Z,3.50
2023-05-07T07:05:35.586Z,3.30
2023-05-07T07:06:35.557Z,3.50
2023-05-07T07:07:35.526Z,3.70
2023-05-07T07:08:35.537Z,3.30
2023-05-07T07:09:35.538Z,3.30
2023-05-07T07:10:35.500Z,3.20
2023-05-07T07:11:35.482Z,3.40
2023-05-07T07:12:35.505Z,3.50
2023-05-07T07:13:35.461Z,3.20
2023-05-07T07:14:35.475Z,3.30
2023-05-07T07:15:35.436Z,3.00
2023-05-07T07:16:35.473Z,3.50
2023-05-07T07:17:35.403Z,3.30
2023-05-07T07:18:35.409Z,3.40
2023-05-07T07:19:35.376Z,3.40
2023-05-07T07:20:35.405Z,3.40
2023-05-07T07:21:35.345Z,3.20
2023-05-07T07:22:35.347Z,3.20
2023-05-07T07:23:35.306Z,3.00
2023-05-07T07:24:35.313Z,3.30
2023-05-07T07:25:35.311Z,3.10
2023-05-07T07:26:35.320Z,3.50
2023-05-07T07:27:35.274Z,3.20
2023-05-07T07:28:35.265Z,3.50
2023-05-07T07:29:35.221Z,3.20
2023-05-07T07:30:35.260Z,3.80
2023-05-07T07:31:35.275Z,3.00
2023-05-07T07:32:35.227Z,3.00
2023-05-07T07:33:35.177Z,3.20
2023-05-07T07:34:35.237Z,3.50
2023-05-07T07:35:35.146Z,3.70
2023-05-07T07:36:45.722Z,3.90
2023-05-07T07:37:35.119Z,3.40
2023-05-07T07:38:35.158Z,3.40
2023-05-07T07:39:35.121Z,3.60
2023-05-07T07:40:35.135Z,3.70
2023-05-07T07:41:35.087Z,3.90
2023-05-07T07:42:35.123Z,3.70
2023-05-07T07:43:35.047Z,3.70
2023-05-07T07:44:35.069Z,3.80
2023-05-07T07:45:35.013Z,3.80
2023-05-07T07:46:35.032Z,3.40
2023-05-07T07:47:35.100Z,3.40
2023-05-07T07:48:34.983Z,3.50
2023-05-07T07:49:35.007Z,3.40
2023-05-07T07:50:44.620Z,3.50
2023-05-07T07:51:34.985Z,3.30
2023-05-07T07:52:34.959Z,3.10
2023-05-07T07:53:34.956Z,3.70
2023-05-07T07:54:34.898Z,3.40
2023-05-07T07:55:34.946Z,3.30
2023-05-07T07:56:34.882Z,3.30
2023-05-07T07:57:34.911Z,3.00
2023-05-07T07:58:34.858Z,2.90
2023-05-07T07:59:34.858Z,3.00
2023-05-07T08:00:34.837Z,3.40
2023-05-07T08:01:34.837Z,3.10
2023-05-07T08:02:34.892Z,3.10
2023-05-07T08:03:34.902Z,3.70
2023-05-07T08:04:34.849Z,3.40
2023-05-07T08:05:34.787Z,3.00
2023-05-07T08:06:34.755Z,3.30
2023-05-07T08:07:34.747Z,3.00
2023-05-07T08:08:34.740Z,2.90
2023-05-07T08:09:34.733Z,3.20
2023-05-07T08:10:35.219Z,3.00
2023-05-07T08:11:34.729Z,2.70
2023-05-07T08:12:34.731Z,2.50
2023-05-07T08:13:34.687Z,2.80
2023-05-07T08:14:34.640Z,2.90
2023-05-07T08:15:34.649Z,2.80
2023-05-07T08:16:34.635Z,2.80
2023-05-07T08:17:34.693Z,3.00
2023-05-07T08:18:34.599Z,3.40
2023-05-07T08:19:34.591Z,3.30
2023-05-07T08:20:34.584Z,3.30
2023-05-07T08:21:34.899Z,3.10
2023-05-07T08:22:34.600Z,3.10
2023-05-07T08:23:34.535Z,3.40
2023-05-07T08:24:34.520Z,3.40
2023-05-07T08:25:34.518Z,3.10
2023-05-07T08:26:34.490Z,3.40
2023-05-07T08:27:34.520Z,3.30
2023-05-07T08:28:34.486Z,3.70
2023-05-07T08:29:34.467Z,3.70
2023-05-07T08:30:34.441Z,3.20
2023-05-07T08:31:34.456Z,3.10
2023-05-07T08:32:34.450Z,3.60
2023-05-07T08:33:34.484Z,3.30
2023-05-07T08:34:34.382Z,3.50
2023-05-07T08:35:34.434Z,3.40
2023-05-07T08:36:34.346Z,3.50
2023-05-07T08:37:34.364Z,3.40
2023-05-07T08:38:34.325Z,3.40
2023-05-07T08:39:34.348Z,3.30
2023-05-07T08:40:34.323Z,3.30
2023-05-07T08:41:34.307Z,3.10
2023-05-07T08:42:34.279Z,2.90
2023-05-07T08:43:34.282Z,3.30
2023-05-07T08:44:34.253Z,3.10
2023-05-07T08:45:34.279Z,3.10
2023-05-07T08:46:34.242Z,3.40
2023-05-07T08:47:34.253Z,3.40
2023-05-07T08:48:34.220Z,3.60
2023-05-07T08:49:34.200Z,3.60
2023-05-07T08:50:34.187Z,3.90
2023-05-07T08:51:34.176Z,3.60
2023-05-07T08:52:34.196Z,3.40
2023-05-07T08:53:34.165Z,2.90
2023-05-07T08:54:34.121Z,3.30
2023-05-07T08:55:34.171Z,4.70
2023-05-07T08:56:34.091Z,3.90
2023-05-07T08:57:34.104Z,3.60
2023-05-07T08:58:34.068Z,3.90
2023-05-07T08:59:34.089Z,4.10
2023-05-07T09:00:34.064Z,4.10
2023-05-07T09:01:34.086Z,4.30
2023-05-07T09:02:34.063Z,4.50
2023-05-07T09:03:34.088Z,4.00
2023-05-07T09:04:33.992Z,4.50
2023-05-07T09:05:34.008Z,3.80
2023-05-07T09:06:33.953Z,4.40
2023-05-07T09:07:34.005Z,4.10
2023-05-07T09:08:33.935Z,4.20
2023-05-07T09:09:33.950Z,4.20
2023-05-07T09:10:33.918Z,4.00
2023-05-07T09:11:33.922Z,4.20
2023-05-07T09:12:33.909Z,4.20
2023-05-07T09:13:33.905Z,4.30
2023-05-07T09:14:33.880Z,4.40
2023-05-07T09:15:33.853Z,4.20
2023-05-07T09:16:33.882Z,3.90
2023-05-07T09:17:33.967Z,3.60
2023-05-07T09:18:33.814Z,3.80
2023-05-07T09:19:33.835Z,4.40
2023-05-07T09:20:33.796Z,3.70
2023-05-07T09:21:33.784Z,3.70
2023-05-07T09:22:33.757Z,4.20
2023-05-07T09:23:33.761Z,3.90
2023-05-07T09:24:33.749Z,3.50
2023-05-07T09:25:33.731Z,3.80
2023-05-07T09:26:33.725Z,3.70
2023-05-07T09:27:33.714Z,3.60
2023-05-07T09:28:34.286Z,3.80
2023-05-07T09:29:33.687Z,4.00
2023-05-07T09:30:33.675Z,3.90
2023-05-07T09:31:33.691Z,3.80
2023-05-07T09:32:33.658Z,3.20
2023-05-07T09:33:33.675Z,3.20
2023-05-07T09:34:33.632Z,3.20
2023-05-07T09:35:33.610Z,3.50
2023-05-07T09:36:33.594Z,3.40
2023-05-07T09:37:33.585Z,4.10
2023-05-07T09:38:33.535Z,4.00
2023-05-07T09:39:33.566Z,3.50
2023-05-07T09:40:33.559Z,3.40
2023-05-07T09:41:33.526Z,3.30
2023-05-07T09:42:33.494Z,3.40
2023-05-07T09:43:33.492Z,2.70
2023-05-07T09:44:33.482Z,2.40
2023-05-07T09:45:33.983Z,2.30
2023-05-07T09:46:33.480Z,2.70
2023-05-07T09:47:33.472Z,2.30
2023-05-07T09:48:33.424Z,2.80
2023-05-07T09:49:33.456Z,3.30
2023-05-07T09:50:33.412Z,2.60
2023-05-07T09:51:33.400Z,2.40
2023-05-07T09:52:33.387Z,2.90
2023-05-07T09:53:33.364Z,2.90
2023-05-07T09:54:33.329Z,2.50
2023-05-07T09:55:33.347Z,2.40
2023-05-07T09:56:33.323Z,2.50
2023-05-07T09:57:33.363Z,2.60
2023-05-07T09:58:33.276Z,2.30
2023-05-07T09:59:33.307Z,2.30
2023-05-07T10:00:33.264Z,2.50
2023-05-07T10:01:33.432Z,2.30
2023-05-07T10:02:33.287Z,2.40
2023-05-07T10:03:33.386Z,3.10
2023-05-07T10:04:33.215Z,2.70
2023-05-07T10:05:33.232Z,2.20
2023-05-07T10:06:33.194Z,2.50
2023-05-07T10:07:33.197Z,2.30
2023-05-07T10:08:33.162Z,2.20
2023-05-07T10:09:33.179Z,2.20
2023-05-07T10:10:33.168Z,2.10
2023-05-07T10:11:33.224Z,2.10
2023-05-07T10:12:33.132Z,2.20
2023-05-07T10:13:33.103Z,2.30
2023-05-07T10:14:33.080Z,2.60
2023-05-07T10:15:33.087Z,2.20
2023-05-07T10:16:33.065Z,2.10
2023-05-07T10:17:33.186Z,2.20
2023-05-07T10:18:33.071Z,2.20
2023-05-07T10:19:33.020Z,2.10
2023-05-07T10:20:33.048Z,1.90
2023-05-07T10:21:33.008Z,2.10
2023-05-07T10:22:32.981Z,2.10
2023-05-07T10:23:32.955Z,2.00
2023-05-07T10:24:32.988Z,1.80
2023-05-07T10:25:33.017Z,2.30
2023-05-07T10:26:32.939Z,2.20
2023-05-07T10:27:32.917Z,1.90
2023-05-07T10:28:32.964Z,2.50
2023-05-07T10:29:32.882Z,2.50
2023-05-07T10:30:33.167Z,2.30
2023-05-07T10:31:33.071Z,2.20
2023-05-07T10:32:32.901Z,2.00
2023-05-07T10:33:32.851Z,2.00
2023-05-07T10:34:32.952Z,2.40
2023-05-07T10:35:32.810Z,2.30
2023-05-07T10:36:32.853Z,2.00
2023-05-07T10:37:32.787Z,2.00
2023-05-07T10:38:32.798Z,2.10
2023-05-07T10:39:32.749Z,2.20
2023-05-07T10:40:32.835Z,2.20
2023-05-07T10:41:32.736Z,2.20
2023-05-07T10:42:32.743Z,2.10
2023-05-07T10:43:32.701Z,1.50
2023-05-07T10:44:32.737Z,2.20
2023-05-07T10:45:32.673Z,1.90
2023-05-07T10:46:32.719Z,1.70
2023-05-07T10:47:32.664Z,1.80
2023-05-07T10:48:32.682Z,2.10
2023-05-07T10:49:32.640Z,1.90
2023-05-07T10:50:32.716Z,1.70
2023-05-07T10:51:32.620Z,1.70
2023-05-07T10:52:32.611Z,2.20
2023-05-07T10:53:32.578Z,1.80
2023-05-07T10:54:32.709Z,2.50
2023-05-07T10:55:32.536Z,2.00
2023-05-07T10:56:32.583Z,2.60
2023-05-07T10:57:32.547Z,2.30
2023-05-07T10:58:33.135Z,2.20
2023-05-07T10:59:32.491Z,2.50
2023-05-07T11:00:38.852Z,2.50
2023-05-07T11:01:32.501Z,2.70
2023-05-07T11:02:32.498Z,2.80
2023-05-07T11:03:32.444Z,2.70
2023-05-07T11:04:32.558Z,2.70
2023-05-07T11:05:33.444Z,2.80
2023-05-07T11:06:32.433Z,2.80
2023-05-07T11:07:32.423Z,3.10
2023-05-07T11:08:32.444Z,2.80
2023-05-07T11:09:32.357Z,2.60
2023-05-07T11:10:32.366Z,2.50
2023-05-07T11:11:33.942Z,2.60
2023-05-07T11:12:32.368Z,2.70
2023-05-07T11:13:32.322Z,2.30
2023-05-07T11:14:32.321Z,3.10
2023-05-07T11:15:32.294Z,2.70
2023-05-07T11:16:32.320Z,3.40
2023-05-07T11:17:33.587Z,3.10
2023-05-07T11:18:32.286Z,2.60
2023-05-07T11:19:32.226Z,2.60
2023-05-07T11:20:32.300Z,2.90
2023-05-07T11:21:32.202Z,2.80
2023-05-07T11:22:32.233Z,2.60
2023-05-07T11:23:32.345Z,3.00
2023-05-07T11:24:32.212Z,2.90
2023-05-07T11:25:32.161Z,2.80
2023-05-07T11:26:32.159Z,2.90
2023-05-07T11:27:32.150Z,2.90
2023-05-07T11:28:32.142Z,2.90
2023-05-07T11:29:32.125Z,2.90
2023-05-07T11:30:32.106Z,3.00
2023-05-07T11:31:32.116Z,2.80
2023-05-07T11:32:32.183Z,3.00
2023-05-07T11:33:32.047Z,2.60
2023-05-07T11:34:32.088Z,2.30
2023-05-07T11:35:32.664Z,2.30
2023-05-07T11:36:32.060Z,2.10
2023-05-07T11:37:32.025Z,3.00
2023-05-07T11:38:32.011Z,2.70
2023-05-07T11:39:32.004Z,2.40
2023-05-07T11:40:32.042Z,2.20
2023-05-07T11:41:31.953Z,2.60
2023-05-07T11:42:31.992Z,2.40
2023-05-07T11:43:31.964Z,3.00
2023-05-07T11:44:31.967Z,3.00
2023-05-07T11:45:31.974Z,2.20
2023-05-07T11:46:32.051Z,2.40
2023-05-07T11:47:31.919Z,1.90
2023-05-07T11:48:31.900Z,2.40
2023-05-07T11:49:31.908Z,2.40
2023-05-07T11:50:31.886Z,2.30
2023-05-07T11:51:31.812Z,2.20
2023-05-07T11:52:31.857Z,2.20
2023-05-07T11:53:31.824Z,2.40
2023-05-07T11:54:31.833Z,2.20
2023-05-07T11:55:31.894Z,2.40
2023-05-07T11:56:31.840Z,2.30
2023-05-07T11:57:31.791Z,2.20
2023-05-07T11:58:31.785Z,2.80
2023-05-07T11:59:31.729Z,2.70
2023-05-07T12:00:31.771Z,4.00
2023-05-07T12:01:31.753Z,3.40
2023-05-07T12:02:31.717Z,3.40
2023-05-07T12:03:35.646Z,3.00
2023-05-07T12:04:31.708Z,3.30
2023-05-07T12:05:31.703Z,3.30
2023-05-07T12:06:31.687Z,3.00
2023-05-07T12:07:31.730Z,3.00
2023-05-07T12:08:31.605Z,3.30
2023-05-07T12:09:31.634Z,2.90
2023-05-07T12:10:31.582Z,3.50
2023-05-07T12:11:31.581Z,3.70
2023-05-07T12:12:31.561Z,3.70
2023-05-07T12:13:31.602Z,4.20
2023-05-07T12:14:31.531Z,3.40
2023-05-07T12:15:31.541Z,3.00
2023-05-07T12:16:31.559Z,4.00
2023-05-07T12:17:31.513Z,3.70
2023-05-07T12:18:31.571Z,3.80
2023-05-07T12:19:31.487Z,3.20
2023-05-07T12:20:31.446Z,3.30
2023-05-07T12:21:31.472Z,3.40
2023-05-07T12:22:31.420Z,3.00
2023-05-07T12:23:31.479Z,3.30
2023-05-07T12:24:31.449Z,4.20
2023-05-07T12:25:31.423Z,4.50
2023-05-07T12:26:31.361Z,4.60
2023-05-07T12:27:31.369Z,4.20
2023-05-07T12:28:31.359Z,4.50
2023-05-07T12:29:31.355Z,4.60
2023-05-07T12:30:31.323Z,4.00
2023-05-07T12:31:31.403Z,4.80
2023-05-07T12:32:31.348Z,4.60
2023-05-07T12:33:31.312Z,5.00
2023-05-07T12:34:31.256Z,4.10
2023-05-07T12:35:31.305Z,4.90
2023-05-07T12:36:31.265Z,4.80
2023-05-07T12:37:32.579Z,4.30
2023-05-07T12:38:31.225Z,4.00
2023-05-07T12:39:31.248Z,4.20
2023-05-07T12:40:31.184Z,4.90
2023-05-07T12:41:31.202Z,4.60
2023-05-07T12:42:31.162Z,5.20
2023-05-07T12:43:31.188Z,4.40
2023-05-07T12:44:31.162Z,4.50
2023-05-07T12:45:31.200Z,3.70
2023-05-07T12:46:31.172Z,3.60
2023-05-07T12:47:31.140Z,3.90
2023-05-07T12:48:31.132Z,4.60
2023-05-07T12:49:31.121Z,4.90
2023-05-07T12:50:31.062Z,4.60
2023-05-07T12:51:31.085Z,4.50
2023-05-07T12:52:31.038Z,4.10
2023-05-07T12:53:31.050Z,4.40
2023-05-07T12:54:31.018Z,4.40
2023-05-07T12:55:34.877Z,4.20
2023-05-07T12:56:30.984Z,4.50
2023-05-07T12:57:30.996Z,4.80
2023-05-07T12:58:30.961Z,4.50
2023-05-07T12:59:30.970Z,4.00
2023-05-07T13:00:30.958Z,4.10
2023-05-07T13:01:30.959Z,4.40
2023-05-07T13:02:31.003Z,4.60
2023-05-07T13:03:31.040Z,4.20
2023-05-07T13:04:30.876Z,3.90
2023-05-07T13:05:30.948Z,4.50
2023-05-07T13:06:30.909Z,4.60
2023-05-07T13:07:31.015Z,3.90
2023-05-07T13:08:30.838Z,4.00
2023-05-07T13:09:30.878Z,4.40
2023-05-07T13:10:30.824Z,3.80
2023-05-07T13:11:30.839Z,4.00
2023-05-07T13:12:30.804Z,4.00
2023-05-07T13:13:32.473Z,4.10
2023-05-07T13:14:30.791Z,3.30
2023-05-07T13:15:30.774Z,3.20
2023-05-07T13:16:30.776Z,3.90
2023-05-07T13:17:30.772Z,4.10
2023-05-07T13:18:30.820Z,3.50